createdAt,value
2022-12-01T00:00:00.857Z,81083.59
2022-12-01T00:01:38.410Z,81073.69
2022-12-01T00:03:12.192Z,81091.53
2022-12-01T00:04:48.662Z,81083.59
2022-12-01T00:06:22.749Z,81083.59
2022-12-01T00:08:00.017Z,81089.53
2022-12-01T00:09:52.326Z,81089.53
2022-12-01T00:11:26.135Z,81083.59
2022-12-01T00:13:02.676Z,81079.63
2022-12-01T00:14:36.683Z,81075.69
2022-12-01T00:16:18.476Z,81079.63
2022-12-01T00:17:51.926Z,81079.63
2022-12-01T00:19:26.392Z,81079.63
2022-12-01T00:20:59.862Z,81075.69
2022-12-01T00:22:33.470Z,81077.66
2022-12-01T00:24:08.411Z,81085.56
2022-12-01T00:25:41.838Z,81089.53
2022-12-01T00:27:15.449Z,81081.63
2022-12-01T00:29:00.644Z,81095.47
2022-12-01T00:30:34.495Z,81091.53
2022-12-01T00:32:07.876Z,81107.34
2022-12-01T00:33:41.674Z,81107.34
2022-12-01T00:35:16.494Z,81105.38
2022-12-01T00:36:50.379Z,81101.41
2022-12-01T00:38:24.157Z,81097.47
2022-12-01T00:39:58.672Z,81091.53
2022-12-01T00:41:32.173Z,81069.75
2022-12-01T00:43:05.813Z,81071.72
2022-12-01T00:44:39.378Z,81099.44
2022-12-01T00:46:14.774Z,81095.47
2022-12-01T00:47:48.307Z,81107.34
2022-12-01T00:49:24.836Z,81101.41
2022-12-01T00:50:58.232Z,81095.47
2022-12-01T00:52:31.951Z,81095.47
2022-12-01T00:54:05.885Z,81103.41
2022-12-01T00:55:40.662Z,81152.88
2022-12-01T00:57:14.664Z,81105.38
2022-12-01T00:58:48.276Z,81109.34
2022-12-01T01:00:22.260Z,81103.41
2022-12-01T01:01:55.930Z,81095.47
2022-12-01T01:03:30.791Z,81095.47
2022-12-01T01:05:04.634Z,81087.56
2022-12-01T01:06:38.308Z,81091.53
2022-12-01T01:08:13.533Z,81073.69
2022-12-01T01:09:47.163Z,81087.56
2022-12-01T01:11:20.779Z,81093.50
2022-12-01T01:12:54.505Z,81097.47
2022-12-01T01:14:28.309Z,81115.28
2022-12-01T01:16:05.444Z,81083.59
2022-12-01T01:17:38.928Z,81087.56
2022-12-01T01:19:12.661Z,81091.53
2022-12-01T01:20:46.005Z,81095.47
2022-12-01T01:22:19.369Z,81087.56
2022-12-01T01:23:54.606Z,81089.53
2022-12-01T01:25:35.672Z,81117.25
2022-12-01T01:27:09.645Z,81099.44
2022-12-01T01:28:43.133Z,81115.28
2022-12-01T01:30:16.795Z,81119.22
2022-12-01T01:31:50.660Z,81107.34
2022-12-01T01:33:24.638Z,81099.44
2022-12-01T01:34:58.280Z,81097.47
2022-12-01T01:36:31.959Z,81143.00
2022-12-01T01:38:05.409Z,81089.53
2022-12-01T01:39:38.903Z,81095.47
2022-12-01T01:41:13.361Z,81109.34
2022-12-01T01:42:46.841Z,81111.31
2022-12-01T01:44:53.267Z,81117.25
2022-12-01T01:46:29.895Z,81152.88
2022-12-01T01:48:06.274Z,81115.28
2022-12-01T01:49:41.315Z,81141.00
2022-12-01T01:51:16.513Z,81099.44
2022-12-01T01:52:55.707Z,81099.44
2022-12-01T01:54:40.719Z,81065.78
2022-12-01T01:56:17.715Z,81065.78
2022-12-01T01:57:51.137Z,81061.81
2022-12-01T01:59:32.449Z,81061.81
2022-12-01T02:01:07.793Z,81055.88
2022-12-01T02:02:46.456Z,81047.97
2022-12-01T02:04:21.449Z,81038.06
2022-12-01T02:05:55.046Z,81032.13
2022-12-01T02:07:29.286Z,81051.94
2022-12-01T02:09:02.852Z,81040.03
2022-12-01T02:10:36.380Z,81036.09
2022-12-01T02:12:36.686Z,81051.94
2022-12-01T02:15:07.292Z,81051.94
2022-12-01T02:16:52.212Z,81049.94
2022-12-01T02:18:44.975Z,81059.84
2022-12-01T02:20:45.631Z,81051.94
2022-12-01T02:23:03.292Z,81036.09
2022-12-01T02:24:45.756Z,81038.06
2022-12-01T02:26:45.860Z,81026.19
2022-12-01T02:28:44.947Z,81024.22
2022-12-01T02:30:46.537Z,81020.25
2022-12-01T02:32:49.228Z,81020.25
2022-12-01T02:34:45.848Z,81008.38
2022-12-01T02:36:26.349Z,81006.41
2022-12-01T02:38:24.420Z,81026.19
2022-12-01T02:40:09.849Z,81014.31
2022-12-01T02:41:51.686Z,80998.47
2022-12-01T02:43:34.167Z,80992.53
2022-12-01T02:45:14.116Z,80992.53
2022-12-01T02:47:11.251Z,80990.56
2022-12-01T02:48:49.174Z,80998.47
2022-12-01T02:50:25.885Z,81002.44
2022-12-01T02:52:00.248Z,81004.41
2022-12-01T02:53:34.897Z,81020.25
2022-12-01T02:55:09.196Z,81028.16
2022-12-01T02:56:45.769Z,81016.28
2022-12-01T02:58:19.371Z,81000.47
2022-12-01T02:59:55.863Z,80984.63
2022-12-01T03:01:58.105Z,80982.63
2022-12-01T03:03:34.609Z,80988.56
2022-12-01T03:05:31.906Z,81022.22
2022-12-01T03:07:30.920Z,80968.78
2022-12-01T03:09:18.611Z,80976.69
2022-12-01T03:10:58.122Z,80962.84
2022-12-01T03:12:43.111Z,80988.56
2022-12-01T03:14:42.238Z,80996.50
2022-12-01T03:16:49.176Z,81014.31
2022-12-01T03:18:41.169Z,81000.47
2022-12-01T03:20:25.769Z,81051.94
2022-12-01T03:22:26.202Z,80996.50
2022-12-01T03:24:05.846Z,80996.50
2022-12-01T03:25:42.613Z,81008.38
2022-12-01T03:27:22.024Z,81012.34
2022-12-01T03:29:07.511Z,81044.00
2022-12-01T03:30:43.995Z,81020.25
2022-12-01T03:32:55.593Z,81020.25
2022-12-01T03:35:05.146Z,81020.25
2022-12-01T03:36:48.936Z,81024.22
2022-12-01T03:38:28.363Z,80996.50
2022-12-01T03:40:06.810Z,80990.56
2022-12-01T03:41:46.242Z,80984.63
2022-12-01T03:43:24.692Z,80976.69
2022-12-01T03:45:04.409Z,80968.78
2022-12-01T03:46:54.983Z,80964.81
2022-12-01T03:48:29.207Z,80972.75
2022-12-01T03:50:05.393Z,80984.63
2022-12-01T03:52:05.024Z,80976.69
2022-12-01T03:54:02.918Z,80972.75
2022-12-01T03:55:42.847Z,80964.81
2022-12-01T03:57:22.142Z,80976.69
2022-12-01T03:58:58.545Z,80984.63
2022-12-01T04:00:34.040Z,80972.75
2022-12-01T04:02:09.187Z,80992.53
2022-12-01T04:03:43.096Z,80980.66
2022-12-01T04:05:19.914Z,80972.75
2022-12-01T04:06:55.965Z,80956.91
2022-12-01T04:08:31.182Z,80949.00
2022-12-01T04:10:06.441Z,80954.94
2022-12-01T04:11:58.502Z,80945.03
2022-12-01T04:13:33.363Z,80933.16
2022-12-01T04:15:10.825Z,80945.03
2022-12-01T04:16:45.343Z,80931.16
2022-12-01T04:18:19.784Z,80935.13
2022-12-01T04:19:53.979Z,80917.31
2022-12-01T04:21:30.102Z,80917.31
2022-12-01T04:23:04.194Z,80901.47
2022-12-01T04:24:43.404Z,80893.56
2022-12-01T04:26:17.851Z,80905.44
2022-12-01T04:27:51.434Z,80891.59
2022-12-01T04:29:25.548Z,80893.56
2022-12-01T04:30:59.292Z,80887.63
2022-12-01T04:32:37.714Z,80875.75
2022-12-01T04:34:12.056Z,80885.66
2022-12-01T04:35:45.592Z,80881.69
2022-12-01T04:37:20.665Z,80891.59
2022-12-01T04:38:54.160Z,80903.47
2022-12-01T04:40:27.775Z,80893.56
2022-12-01T04:42:01.291Z,80897.53
2022-12-01T04:43:34.888Z,80897.53
2022-12-01T04:45:09.047Z,80875.75
2022-12-01T04:46:43.092Z,80873.75
2022-12-01T04:48:16.693Z,80865.84
2022-12-01T04:49:50.938Z,80857.94
2022-12-01T04:51:24.524Z,80830.22
2022-12-01T04:52:58.198Z,80838.13
2022-12-01T04:54:31.904Z,80832.19
2022-12-01T04:56:06.131Z,80822.28
2022-12-01T04:57:42.488Z,80822.28
2022-12-01T04:59:16.099Z,80798.53
2022-12-01T05:00:49.819Z,80808.44
2022-12-01T05:02:23.731Z,80806.47
2022-12-01T05:03:57.699Z,80830.22
2022-12-01T05:05:31.885Z,80818.34
2022-12-01T05:07:05.865Z,80812.41
2022-12-01T05:08:40.183Z,80794.59
2022-12-01T05:10:14.770Z,80810.41
2022-12-01T05:11:48.708Z,80794.59
2022-12-01T05:13:22.427Z,80798.53
2022-12-01T05:14:56.548Z,80792.59
2022-12-01T05:16:32.670Z,80790.63
2022-12-01T05:18:07.815Z,80798.53
2022-12-01T05:20:00.285Z,80792.59
2022-12-01T05:21:33.900Z,80804.47
2022-12-01T05:23:10.787Z,80784.69
2022-12-01T05:24:46.481Z,80810.41
2022-12-01T05:26:20.036Z,80796.56
2022-12-01T05:27:53.898Z,80786.66
2022-12-01T05:29:30.341Z,80766.88
2022-12-01T05:31:04.547Z,80774.78
2022-12-01T05:32:41.211Z,80766.88
2022-12-01T05:34:17.972Z,80741.13
2022-12-01T05:35:55.475Z,80755.00
2022-12-01T05:37:33.953Z,80731.25
2022-12-01T05:39:07.693Z,80762.91
2022-12-01T05:40:41.649Z,80739.16
2022-12-01T05:42:16.573Z,80679.78
2022-12-01T05:43:50.017Z,80667.91
2022-12-01T05:45:24.214Z,80695.63
2022-12-01T05:47:00.476Z,80659.97
2022-12-01T05:48:33.988Z,80659.97
2022-12-01T05:50:08.760Z,80675.81
2022-12-01T05:51:43.672Z,80679.78
2022-12-01T05:53:18.584Z,80663.94
2022-12-01T05:54:55.177Z,80669.88
2022-12-01T05:56:28.770Z,80644.16
2022-12-01T05:58:02.880Z,80636.22
2022-12-01T05:59:39.943Z,80648.09
2022-12-01T06:01:13.868Z,80634.25
2022-12-01T06:02:47.369Z,80636.22
2022-12-01T06:04:22.532Z,80636.22
2022-12-01T06:05:59.307Z,80640.19
2022-12-01T06:07:35.171Z,80622.38
2022-12-01T06:09:08.991Z,80659.97
2022-12-01T06:10:43.395Z,80636.22
2022-12-01T06:12:20.776Z,80618.41
2022-12-01T06:13:54.801Z,80592.69
2022-12-01T06:15:29.292Z,80620.41
2022-12-01T06:17:02.996Z,80622.38
2022-12-01T06:18:39.350Z,80610.50
2022-12-01T06:20:13.853Z,80608.53
2022-12-01T06:21:47.264Z,80576.84
2022-12-01T06:23:21.040Z,80588.72
2022-12-01T06:24:54.977Z,80582.78
2022-12-01T06:26:35.626Z,80590.72
2022-12-01T06:28:09.233Z,80612.47
2022-12-01T06:29:43.002Z,80576.84
2022-12-01T06:31:16.902Z,80568.94
2022-12-01T06:32:50.889Z,80592.69
2022-12-01T06:34:26.370Z,80582.78
2022-12-01T06:36:05.284Z,80561.00
2022-12-01T06:37:39.279Z,80586.75
2022-12-01T06:39:15.855Z,80561.00
2022-12-01T06:40:49.714Z,80561.00
2022-12-01T06:42:25.391Z,80549.13
2022-12-01T06:43:58.996Z,80561.00
2022-12-01T06:45:32.850Z,80561.00
2022-12-01T06:47:10.386Z,80541.22
2022-12-01T06:48:44.200Z,80559.03
2022-12-01T06:50:22.347Z,80549.13
2022-12-01T06:51:56.298Z,80537.25
2022-12-01T06:53:30.466Z,80553.09
2022-12-01T06:55:04.699Z,80543.19
2022-12-01T06:56:37.767Z,80529.34
2022-12-01T06:58:11.995Z,80533.31
2022-12-01T06:59:46.316Z,80537.25
2022-12-01T07:01:20.585Z,80517.47
2022-12-01T07:02:54.495Z,80503.63
2022-12-01T07:04:28.131Z,80489.75
2022-12-01T07:06:02.202Z,80462.03
2022-12-01T07:07:37.835Z,80460.06
2022-12-01T07:09:11.682Z,80468.00
2022-12-01T07:10:45.345Z,80501.63
2022-12-01T07:12:18.666Z,80497.69
2022-12-01T07:13:56.540Z,80489.75
2022-12-01T07:15:30.323Z,80477.88
2022-12-01T07:17:04.281Z,80477.88
2022-12-01T07:18:38.893Z,80493.72
2022-12-01T07:20:15.317Z,80479.88
2022-12-01T07:21:48.901Z,80477.88
2022-12-01T07:23:22.644Z,80426.41
2022-12-01T07:24:56.249Z,80422.47
2022-12-01T07:26:30.217Z,80420.47
2022-12-01T07:28:06.453Z,80418.50
2022-12-01T07:29:39.958Z,80406.63
2022-12-01T07:31:16.887Z,80414.53
2022-12-01T07:32:50.378Z,80396.72
2022-12-01T07:34:24.289Z,80416.53
2022-12-01T07:35:58.077Z,80374.97
2022-12-01T07:37:31.688Z,80374.97
2022-12-01T07:39:09.853Z,80371.00
2022-12-01T07:40:44.247Z,80404.66
2022-12-01T07:42:18.315Z,80371.00
2022-12-01T07:44:01.235Z,80363.09
2022-12-01T07:45:35.126Z,80349.22
2022-12-01T07:47:09.167Z,80321.53
2022-12-01T07:48:43.051Z,80303.72
2022-12-01T07:50:16.862Z,80307.66
2022-12-01T07:51:50.870Z,80301.72
2022-12-01T07:53:25.156Z,80297.78
2022-12-01T07:54:59.104Z,80274.03
2022-12-01T07:56:32.881Z,80252.25
2022-12-01T07:58:06.916Z,80234.44
2022-12-01T07:59:40.960Z,80234.44
2022-12-01T08:01:17.725Z,80216.63
2022-12-01T08:02:51.654Z,80224.53
2022-12-01T08:04:25.222Z,80208.72
2022-12-01T08:05:59.786Z,80228.50
2022-12-01T08:07:37.239Z,80202.78
2022-12-01T08:09:10.805Z,80198.81
2022-12-01T08:10:44.598Z,80220.56
2022-12-01T08:12:17.911Z,80216.63
2022-12-01T08:13:55.982Z,80212.66
2022-12-01T08:15:32.784Z,80202.78
2022-12-01T08:17:06.401Z,80216.63
2022-12-01T08:18:41.467Z,80204.75
2022-12-01T08:20:20.805Z,80224.53
2022-12-01T08:21:58.137Z,80228.50
2022-12-01T08:23:31.908Z,80268.09
2022-12-01T08:25:05.819Z,80212.66
2022-12-01T08:26:39.951Z,80232.44
2022-12-01T08:28:16.500Z,80246.31
2022-12-01T08:29:50.699Z,80228.50
2022-12-01T08:31:30.547Z,80238.41
2022-12-01T08:33:03.972Z,80236.41
2022-12-01T08:34:41.897Z,80252.25
2022-12-01T08:36:16.255Z,80262.16
2022-12-01T08:37:53.606Z,80228.50
2022-12-01T08:39:28.025Z,80248.28
2022-12-01T08:41:04.257Z,80256.22
2022-12-01T08:42:38.580Z,80226.53
2022-12-01T08:44:12.408Z,80260.16
2022-12-01T08:45:55.851Z,80264.13
2022-12-01T08:47:30.366Z,80279.97
2022-12-01T08:49:09.189Z,80248.28
2022-12-01T08:50:46.774Z,80248.28
2022-12-01T08:52:24.855Z,80260.16
2022-12-01T08:55:51.043Z,80236.41
2022-12-01T08:57:24.935Z,80232.44
2022-12-01T08:58:58.940Z,80226.53
2022-12-01T09:00:35.163Z,80252.25
2022-12-01T09:02:15.267Z,80202.78
2022-12-01T09:03:49.035Z,80202.78
2022-12-01T09:05:23.432Z,80194.84
2022-12-01T09:06:58.606Z,80179.00
2022-12-01T09:08:33.665Z,80192.88
2022-12-01T09:10:08.347Z,80200.78
2022-12-01T09:11:44.472Z,80224.53
2022-12-01T09:13:18.094Z,80224.53
2022-12-01T09:14:52.270Z,80218.59
2022-12-01T09:16:26.268Z,80218.59
2022-12-01T09:18:00.307Z,80212.66
2022-12-01T09:19:34.442Z,80220.56
2022-12-01T09:21:14.370Z,80224.53
2022-12-01T09:22:48.154Z,80238.41
2022-12-01T09:24:22.096Z,80232.44
2022-12-01T09:25:58.961Z,80218.59
2022-12-01T09:27:32.688Z,80234.44
2022-12-01T09:29:12.366Z,80228.50
2022-12-01T09:30:47.854Z,80228.50
2022-12-01T09:32:21.718Z,80220.56
2022-12-01T09:33:59.349Z,80220.56
2022-12-01T09:35:34.944Z,80206.72
2022-12-01T09:37:08.483Z,80252.25
2022-12-01T09:38:42.609Z,80268.09
2022-12-01T09:40:16.426Z,80295.78
2022-12-01T09:42:32.376Z,80295.78
2022-12-01T09:44:14.868Z,80301.72
2022-12-01T09:45:59.086Z,80303.72
2022-12-01T09:47:36.002Z,80303.72
2022-12-01T09:49:19.564Z,80327.47
2022-12-01T09:50:54.310Z,80293.81
2022-12-01T09:52:33.319Z,80283.91
2022-12-01T09:54:15.191Z,80270.06
2022-12-01T09:55:56.712Z,80276.00
2022-12-01T09:57:37.414Z,80276.00
2022-12-01T09:59:18.597Z,80252.25
2022-12-01T10:00:54.017Z,80260.16
2022-12-01T10:02:37.344Z,80260.16
2022-12-01T10:04:18.049Z,80256.22
2022-12-01T10:07:57.998Z,80256.22
2022-12-01T10:09:40.652Z,80268.09
2022-12-01T10:11:30.780Z,80236.41
2022-12-01T10:13:09.516Z,80256.22
2022-12-01T10:14:45.707Z,80291.84
2022-12-01T10:16:28.328Z,80281.94
2022-12-01T10:18:08.043Z,80291.84
2022-12-01T10:20:23.680Z,80313.59
2022-12-01T10:22:21.138Z,80297.78
2022-12-01T10:24:26.469Z,80321.53
2022-12-01T10:26:09.380Z,80371.00
2022-12-01T10:28:03.446Z,80335.38
2022-12-01T10:29:48.738Z,80307.66
2022-12-01T10:31:58.610Z,80295.78
2022-12-01T10:33:44.349Z,80276.00
2022-12-01T10:35:20.350Z,80283.91
2022-12-01T10:36:55.279Z,80281.94
2022-12-01T10:38:32.445Z,80266.09
2022-12-01T10:40:06.894Z,80299.75
2022-12-01T10:41:41.506Z,80303.72
2022-12-01T10:43:16.060Z,80291.84
2022-12-01T10:44:51.319Z,80293.81
2022-12-01T10:46:34.329Z,80268.09
2022-12-01T10:48:18.083Z,80283.91
2022-12-01T10:49:52.431Z,80289.84
2022-12-01T10:51:28.583Z,80287.88
2022-12-01T10:53:02.280Z,80270.06
2022-12-01T10:54:42.091Z,80285.91
2022-12-01T10:56:22.648Z,80293.81
2022-12-01T10:58:00.246Z,80272.03
2022-12-01T10:59:53.693Z,80281.94
2022-12-01T11:01:37.827Z,80289.84
2022-12-01T11:03:23.472Z,80293.81
2022-12-01T11:05:04.041Z,80301.72
2022-12-01T11:06:40.802Z,80315.59
2022-12-01T11:08:29.842Z,80327.47
2022-12-01T11:10:13.323Z,80327.47
2022-12-01T11:11:54.282Z,80319.53
2022-12-01T11:13:30.039Z,80327.47
2022-12-01T11:15:03.917Z,80351.22
2022-12-01T11:16:43.864Z,80386.84
2022-12-01T11:18:41.276Z,80404.66
2022-12-01T11:20:28.751Z,80380.91
2022-12-01T11:22:19.041Z,80376.94
2022-12-01T11:23:54.869Z,80371.00
2022-12-01T11:25:28.112Z,80367.03
2022-12-01T11:27:01.779Z,80363.09
2022-12-01T11:28:36.814Z,80384.84
2022-12-01T11:30:36.974Z,80386.84
2022-12-01T11:32:16.240Z,80374.97
2022-12-01T11:33:53.956Z,80369.03
2022-12-01T11:35:33.278Z,80361.09
2022-12-01T11:37:17.713Z,80367.03
2022-12-01T11:38:55.657Z,80371.00
2022-12-01T11:40:33.838Z,80394.75
2022-12-01T11:42:17.694Z,80388.81
2022-12-01T11:44:01.151Z,80390.78
2022-12-01T11:45:45.874Z,80382.88
2022-12-01T11:47:25.572Z,80394.75
2022-12-01T11:49:30.991Z,80426.41
2022-12-01T11:51:37.997Z,80406.63
2022-12-01T11:53:29.887Z,80416.53
2022-12-01T11:55:09.791Z,80422.47
2022-12-01T11:56:45.881Z,80426.41
2022-12-01T11:58:19.475Z,80432.34
2022-12-01T11:59:53.325Z,80438.28
2022-12-01T12:01:57.678Z,80458.09
2022-12-01T12:03:46.201Z,80464.03
2022-12-01T12:05:40.499Z,80462.03
2022-12-01T12:07:58.749Z,80462.03
2022-12-01T12:09:45.189Z,80460.06
2022-12-01T12:11:29.536Z,80462.03
2022-12-01T12:13:17.588Z,80466.00
2022-12-01T12:14:51.300Z,80458.09
2022-12-01T12:17:09.455Z,80462.03
2022-12-01T12:19:05.298Z,80468.00
2022-12-01T12:21:06.233Z,80469.97
2022-12-01T12:22:53.742Z,80485.81
2022-12-01T12:24:49.017Z,80489.75
2022-12-01T12:26:35.824Z,80481.84
2022-12-01T12:28:41.804Z,80481.84
2022-12-01T12:30:26.703Z,80491.75
2022-12-01T12:32:43.286Z,80477.88
2022-12-01T12:34:23.207Z,80473.94
2022-12-01T12:36:24.541Z,80473.94
2022-12-01T12:38:13.676Z,80458.09
2022-12-01T12:39:54.826Z,80458.09
2022-12-01T12:41:43.499Z,80456.13
2022-12-01T12:43:24.447Z,80454.13
2022-12-01T12:45:27.855Z,80454.13
2022-12-01T12:47:32.750Z,80477.88
2022-12-01T12:49:28.096Z,80481.84
2022-12-01T12:51:17.134Z,80489.75
2022-12-01T12:52:55.585Z,80507.56
2022-12-01T12:54:38.610Z,80517.47
2022-12-01T12:56:16.042Z,80505.59
2022-12-01T12:58:11.105Z,80493.72
2022-12-01T13:00:07.987Z,80507.56
2022-12-01T13:02:11.265Z,80489.75
2022-12-01T13:03:57.201Z,80479.88
2022-12-01T13:05:49.826Z,80499.66
2022-12-01T13:07:35.205Z,80468.00
2022-12-01T13:09:47.687Z,80477.88
2022-12-01T13:11:33.447Z,80481.84
2022-12-01T13:13:34.256Z,80469.97
2022-12-01T13:15:17.477Z,80466.00
2022-12-01T13:16:52.796Z,80469.97
2022-12-01T13:18:35.089Z,80469.97
2022-12-01T13:20:15.775Z,80468.00
2022-12-01T13:21:54.554Z,80471.94
2022-12-01T13:23:29.914Z,80468.00
2022-12-01T13:25:05.792Z,80485.81
2022-12-01T13:26:43.952Z,80460.06
2022-12-01T13:28:28.255Z,80456.13
2022-12-01T13:30:02.501Z,80458.09
2022-12-01T13:31:46.016Z,80462.03
2022-12-01T13:33:19.061Z,80466.00
2022-12-01T13:34:53.043Z,80471.94
2022-12-01T13:36:46.295Z,80471.94
2022-12-01T13:38:22.624Z,80477.88
2022-12-01T13:39:57.387Z,80485.81
2022-12-01T13:41:35.354Z,80483.81
2022-12-01T13:43:21.344Z,80485.81
2022-12-01T13:45:16.248Z,80491.75
2022-12-01T13:47:12.690Z,80485.81
2022-12-01T13:48:46.198Z,80501.63
2022-12-01T13:50:54.014Z,80487.78
2022-12-01T13:52:31.113Z,80495.69
2022-12-01T13:54:29.211Z,80501.63
2022-12-01T13:56:18.237Z,80507.56
2022-12-01T13:57:57.941Z,80521.44
2022-12-01T13:59:59.547Z,80517.47
2022-12-01T14:01:35.499Z,80527.38
2022-12-01T14:03:20.758Z,80537.25
2022-12-01T14:04:54.284Z,80531.31
2022-12-01T14:06:40.622Z,80527.38
2022-12-01T14:08:27.105Z,80545.19
2022-12-01T14:10:29.506Z,80541.22
2022-12-01T14:12:07.319Z,80553.09
2022-12-01T14:13:56.096Z,80537.25
2022-12-01T14:15:43.552Z,80539.25
2022-12-01T14:17:43.491Z,80537.25
2022-12-01T14:19:47.314Z,80527.38
2022-12-01T14:21:43.642Z,80549.13
2022-12-01T14:23:19.795Z,80541.22
2022-12-01T14:24:54.021Z,80543.19
2022-12-01T14:26:30.944Z,80549.13
2022-12-01T14:28:13.255Z,80557.06
2022-12-01T14:29:46.992Z,80541.22
2022-12-01T14:31:20.503Z,80545.19
2022-12-01T14:33:32.120Z,80543.19
2022-12-01T14:35:12.129Z,80545.19
2022-12-01T14:36:50.302Z,80553.09
2022-12-01T14:38:24.176Z,80553.09
2022-12-01T14:40:05.109Z,80549.13
2022-12-01T14:42:11.254Z,80533.31
2022-12-01T14:44:05.256Z,80568.94
2022-12-01T14:46:00.433Z,80537.25
2022-12-01T14:47:51.890Z,80513.50
2022-12-01T14:49:33.478Z,80533.31
2022-12-01T14:51:17.323Z,80531.31
2022-12-01T14:52:56.374Z,80533.31
2022-12-01T14:54:57.940Z,80533.31
2022-12-01T14:56:33.693Z,80541.22
2022-12-01T14:58:20.626Z,80541.22
2022-12-01T15:00:17.277Z,80545.19
2022-12-01T15:01:54.519Z,80533.31
2022-12-01T15:03:34.550Z,80537.25
2022-12-01T15:05:13.225Z,80535.28
2022-12-01T15:06:49.924Z,80568.94
2022-12-01T15:08:41.868Z,80525.38
2022-12-01T15:10:27.125Z,80541.22
2022-12-01T15:12:03.982Z,80533.31
2022-12-01T15:13:52.286Z,80537.25
2022-12-01T15:15:27.466Z,80529.34
2022-12-01T15:17:03.293Z,80549.13
2022-12-01T15:18:37.884Z,80549.13
2022-12-01T15:20:31.833Z,80535.28
2022-12-01T15:22:14.598Z,80553.09
2022-12-01T15:24:04.683Z,80529.34
2022-12-01T15:25:43.814Z,80541.22
2022-12-01T15:27:30.075Z,80549.13
2022-12-01T15:29:22.848Z,80535.28
2022-12-01T15:31:03.900Z,80533.31
2022-12-01T15:32:38.924Z,80545.19
2022-12-01T15:34:17.712Z,80549.13
2022-12-01T15:35:54.822Z,80545.19
2022-12-01T15:37:31.146Z,80553.09
2022-12-01T15:39:07.239Z,80561.00
2022-12-01T15:41:13.414Z,80541.22
2022-12-01T15:42:35.512Z,80557.06
2022-12-01T15:44:21.555Z,80576.84
2022-12-01T15:46:02.570Z,80559.03
2022-12-01T15:47:44.117Z,80563.00
2022-12-01T15:49:30.402Z,80561.00
2022-12-01T15:51:09.537Z,80570.91
2022-12-01T15:52:45.381Z,80572.88
2022-12-01T15:54:25.681Z,80580.81
2022-12-01T15:56:01.162Z,80566.94
2022-12-01T15:57:35.476Z,80557.06
2022-12-01T15:59:15.145Z,80568.94
2022-12-01T16:01:05.545Z,80566.94
2022-12-01T16:02:40.699Z,80584.75
2022-12-01T16:04:23.698Z,80588.72
2022-12-01T16:05:58.517Z,80586.75
2022-12-01T16:09:41.656Z,80584.75
2022-12-01T16:11:18.172Z,80584.75
2022-12-01T16:12:51.722Z,80582.78
2022-12-01T16:14:26.308Z,80594.66
2022-12-01T16:16:00.164Z,80610.50
2022-12-01T16:17:54.483Z,80606.53
2022-12-01T16:19:32.934Z,80608.53
2022-12-01T16:21:06.809Z,80614.47
2022-12-01T16:22:39.914Z,80626.34
2022-12-01T16:24:24.295Z,80626.34
2022-12-01T16:26:01.895Z,80624.34
2022-12-01T16:27:38.056Z,80608.53
2022-12-01T16:29:26.595Z,80624.34
2022-12-01T16:31:00.358Z,80618.41
2022-12-01T16:32:42.139Z,80628.31
2022-12-01T16:34:44.823Z,80628.31
2022-12-01T16:36:14.730Z,80626.34
2022-12-01T16:37:48.278Z,80636.22
2022-12-01T16:39:21.469Z,80646.13
2022-12-01T16:40:59.056Z,80656.03
2022-12-01T16:42:33.065Z,80659.97
2022-12-01T16:44:27.733Z,80648.09
2022-12-01T16:46:03.636Z,80652.06
2022-12-01T16:47:38.130Z,80654.03
2022-12-01T16:49:12.313Z,80679.78
2022-12-01T16:50:46.292Z,80659.97
2022-12-01T16:54:14.474Z,80648.09
2022-12-01T16:55:53.631Z,80679.78
2022-12-01T16:57:27.009Z,80663.94
2022-12-01T16:59:02.201Z,80654.03
2022-12-01T17:00:36.570Z,80663.94
2022-12-01T17:02:12.237Z,80663.94
2022-12-01T17:03:45.434Z,80663.94
2022-12-01T17:05:19.606Z,80669.88
2022-12-01T17:06:54.508Z,80667.91
2022-12-01T17:08:27.853Z,80679.78
2022-12-01T17:10:01.575Z,80671.88
2022-12-01T17:11:35.111Z,80675.81
2022-12-01T17:13:08.476Z,80673.84
2022-12-01T17:14:41.590Z,80671.88
2022-12-01T17:16:18.432Z,80667.91
2022-12-01T17:17:52.354Z,80671.88
2022-12-01T17:19:26.076Z,80677.78
2022-12-01T17:21:05.307Z,80677.78
2022-12-01T17:22:38.930Z,80711.44
2022-12-01T17:24:17.556Z,80667.91
2022-12-01T17:25:53.339Z,80677.78
2022-12-01T17:27:28.060Z,80667.91
2022-12-01T17:29:01.927Z,80681.75
2022-12-01T17:30:36.697Z,80648.09
2022-12-01T17:32:11.638Z,80654.03
2022-12-01T17:33:44.938Z,80693.63
2022-12-01T17:35:18.494Z,80683.75
2022-12-01T17:36:52.303Z,80713.44
2022-12-01T17:38:25.848Z,80737.19
2022-12-01T17:39:59.432Z,80733.22
2022-12-01T17:41:36.190Z,80749.06
2022-12-01T17:43:10.055Z,80774.78
2022-12-01T17:44:43.971Z,80756.97
2022-12-01T17:46:18.355Z,80794.59
2022-12-01T17:47:52.033Z,80758.97
2022-12-01T17:49:25.910Z,80784.69
2022-12-01T17:50:59.764Z,80762.91
2022-12-01T17:52:33.455Z,80774.78
2022-12-01T17:54:07.559Z,80782.72
2022-12-01T17:55:41.692Z,80782.72
2022-12-01T17:57:15.773Z,80784.69
2022-12-01T17:58:50.891Z,80800.53
2022-12-01T18:00:24.246Z,80802.50
2022-12-01T18:01:57.733Z,80812.41
2022-12-01T18:03:31.653Z,80810.41
2022-12-01T18:05:05.899Z,80838.13
2022-12-01T18:06:39.390Z,80846.06
2022-12-01T18:08:14.436Z,80836.16
2022-12-01T18:09:48.954Z,80852.00
2022-12-01T18:11:24.382Z,80857.94
2022-12-01T18:12:58.092Z,80865.84
2022-12-01T18:14:33.180Z,80875.75
2022-12-01T18:16:12.298Z,80885.66
2022-12-01T18:17:45.609Z,80889.59
2022-12-01T18:19:20.770Z,80889.59
2022-12-01T18:20:54.970Z,80897.53
2022-12-01T18:22:29.294Z,80901.47
2022-12-01T18:24:06.163Z,80913.34
2022-12-01T18:25:41.484Z,80950.97
2022-12-01T18:27:14.943Z,80921.28
2022-12-01T18:28:57.881Z,80952.94
2022-12-01T18:30:33.167Z,80933.16
2022-12-01T18:32:07.027Z,80941.06
2022-12-01T18:33:42.581Z,80935.13
2022-12-01T18:35:16.651Z,80952.94
2022-12-01T18:36:50.804Z,80931.16
2022-12-01T18:38:25.594Z,80923.25
2022-12-01T18:40:00.151Z,80913.34
2022-12-01T18:41:34.367Z,80909.41
2022-12-01T18:43:08.171Z,80917.31
2022-12-01T18:44:46.943Z,80919.28
2022-12-01T18:46:21.661Z,80917.31
2022-12-01T18:47:55.917Z,80917.31
2022-12-01T18:49:29.904Z,80925.22
2022-12-01T18:51:05.659Z,80927.22
2022-12-01T18:52:39.593Z,80929.19
2022-12-01T18:54:14.933Z,80949.00
2022-12-01T18:55:51.255Z,80925.22
2022-12-01T18:57:24.879Z,80931.16
2022-12-01T18:59:00.637Z,80933.16
2022-12-01T19:00:36.395Z,80931.16
2022-12-01T19:02:11.042Z,80939.09
2022-12-01T19:03:44.658Z,80956.91
2022-12-01T19:05:18.320Z,80939.09
2022-12-01T19:06:52.573Z,80941.06
2022-12-01T19:08:26.359Z,80945.03
2022-12-01T19:09:59.693Z,80950.97
2022-12-01T19:11:33.773Z,80954.94
2022-12-01T19:13:08.707Z,80968.78
2022-12-01T19:14:42.449Z,80982.63
2022-12-01T19:16:18.335Z,80988.56
2022-12-01T19:17:51.897Z,80994.50
2022-12-01T19:19:26.239Z,81004.41
2022-12-01T19:21:07.702Z,81012.34
2022-12-01T19:22:41.248Z,81014.31
2022-12-01T19:24:14.821Z,81020.25
2022-12-01T19:25:48.770Z,81024.22
2022-12-01T19:27:23.507Z,81069.75
2022-12-01T19:28:56.699Z,81016.28
2022-12-01T19:30:30.405Z,81004.41
2022-12-01T19:32:05.028Z,81028.16
2022-12-01T19:33:38.908Z,81012.34
2022-12-01T19:35:12.587Z,81010.34